This is the latest recevied weather packets stored in our database for station/object DB0ROB-10. If no packets are shown the sender has not sent any weather packets the latest 10 day(s).
| Time | Temp. | Humidity | Pressure | Rain* | Wind** | Luminosity | Snow |
|---|---|---|---|---|---|---|---|
| 1777905089 | 19.44° C | 34% | 1013 hPa | - | - | - | - |
| 1777904189 | 20.56° C | 30% | 1013.1 hPa | - | - | - | - |
| 1777903289 | 19.44° C | 33% | 1013.2 hPa | - | - | - | - |
| 1777902394 | 20° C | 30% | 1013.2 hPa | - | - | - | - |
| 1777901494 | 18.89° C | 32% | 1013.4 hPa | - | - | - | - |
| 1777900594 | 19.44° C | 30% | 1013.6 hPa | - | - | - | - |
| 1777899694 | 20° C | 30% | 1013.7 hPa | - | - | - | - |
| 1777898793 | 20.56° C | 32% | 1013.6 hPa | - | - | - | - |
| 1777897893 | 19.44° C | 33% | 1013.7 hPa | - | - | - | - |
| 1777896993 | 20.56° C | 30% | 1013.8 hPa | - | - | - | - |
| 1777896092 | 20° C | 32% | 1013.9 hPa | - | - | - | - |
| 1777895192 | 20° C | 32% | 1014.1 hPa | - | - | - | - |
| 1777894292 | 18.89° C | 31% | 1014.2 hPa | - | - | - | - |
| 1777893391 | 20.56° C | 27% | 1014.3 hPa | - | - | - | - |
| 1777892491 | 18.89° C | 30% | 1014.3 hPa | - | - | - | - |
| 1777891591 | 19.44° C | 28% | 1014.4 hPa | - | - | - | - |
| 1777890690 | 18.89° C | 31% | 1014.5 hPa | - | - | - | - |
| 1777889790 | 20° C | 28% | 1014.7 hPa | - | - | - | - |
| 1777888890 | 21.11° C | 24% | 1014.6 hPa | - | - | - | - |
| 1777887990 | 21.11° C | 28% | 1014.6 hPa | - | - | - | - |
| 1777887089 | 20.56° C | 33% | 1014.7 hPa | - | - | - | - |
| 1777886189 | 20.56° C | 34% | 1014.8 hPa | - | - | - | - |
| 1777885289 | 20° C | 38% | 1014.8 hPa | - | - | - | - |
| 1777884389 | 19.44° C | 40% | 1014.9 hPa | - | - | - | - |
| 1777883489 | 20° C | 38% | 1014.7 hPa | - | - | - | - |
* Rain since midnight (hover to see other rain measurements)
** Current wind speed in m/s (hover to see current wind gust speed)